Main page
METAR-TAF:

METAR-TAF

Airports :

Clovis Municipal Airport

Clovis, New Mexico, United States

latitude: 34-26N, longitude: 103-05W, elevation: 4212 ft

Current weather observation

The report was made 1 hour and 17 minutes ago, at 21:56 UTC
Wind 16 mph from the South
Temperature 79°F
Humidity 51%
Pressure 29.89 in. Hg
Visibility: 10 miles
Few clouds at a height of 5000 ft
Broken clouds at a height of 7000 ft
Broken clouds at a height of 12000 ft

METAR: KCVN 202156Z AUTO 17014KT 10SM FEW050 BKN070 BKN120 26/15 A2989 RMK AO2 LTG DSNT SW AND W SLP085 T02560150

Time: 17:13 (23:13 UTC)


TAF: missing

Weather observations and forecasts of more than 4000 airports (METAR and TAF reports).

The available stations are represented by yellow and red dots on the map.

Hover mouse over dot to see the name of the station.

Then click to see weather observations and forecasts.

To change the map : click on the green buttons with a black cross to zoom in, on the green button with a dash to zoom out, or on the green arrows for adjacent maps.


METAR-TAF: